Falls International Airport
KINL : now visible

Airfield :











YOU CAN JOIN US ON...

 
LOGIN :

Register | Disclaimer

   EN    FR    IT 

 









Legend :    VFR   Marginal VFR   IFR   Intensive IFR   Very Intensive IFR
Visi :
Ceiling :
>= 8 km
>= 3000ft
5 to 8 km
1000 to 3000 ft
1500m to 5 km
500 to 1000 ft
800 to 1500m
200 to 500 ft
< 800m
< 200 ft
Symbols :   Thunderstorms  Fog  Heavy snow  Heavy precipitations  Wind > 20 kt






- Airport Elevation : 1185 ft
- IATA code : INL


KINL - Falls International

CURRENT METAR :
  • 190954Z AUTO VRB06G17KT 10SM CLR 18/12 A2973 RMK AO2 SLP067 T01780122

EXPIRED METARs :
  • 190854Z AUTO VRB04KT 10SM CLR 18/11 A2976 RMK AO2 SLP076 T01780111 56023
  • 190754Z AUTO 16008KT 10SM CLR 17/10 A2978 RMK AO2 SLP083 T01720100
  • 190654Z AUTO 15008G16KT 10SM CLR 17/09 A2980 RMK AO2 SLP092 T01670089

TAF KINL
Valid from the 19 at 10:00 until the 20 at 06:00 UTC


190948Z 1910/2006 17009KT P6SM SKC WS015/20045KT
FM191200 18012G23KT P6SM SCT150 WS015/21050KT
FM191500 19015G27KT P6SM SCT150 WS015/21045KT
FM191700 20015G27KT P6SM SCT150
FM200000 20011G21KT 6SM -SHRA BR VCTS SCT060CB BKN090
KZMP FIR / North America



MET'MAP, your aeronautical weather chart ! - Copyright ORBIFLY December 2007 - Disclaimer

ORBIFLY MET'MAP TEAM :

Programming & Development : Alexandra Zaïnal
Concept & original design : Baudouin d'Aumeries
Assistance for programming : Marc-Olivier Méhu
Technical & hardware support : Manuel Goepfert

Contact : metmap@orbifly.com




SOURCES & CREDITS :

   NOAA       Earth
Advisory